sensor_id;sensor_type;location;lat;lon;timestamp;P1;durP1;ratioP1;P2;durP2;ratioP2
19386;SDS011;9829;48.142;16.382;2022-07-03T00:00:28;6.63;;;5.13;;
19386;SDS011;9829;48.142;16.382;2022-07-03T00:02:57;5.53;;;5.10;;
19386;SDS011;9829;48.142;16.382;2022-07-03T00:05:23;5.55;;;5.15;;
19386;SDS011;9829;48.142;16.382;2022-07-03T00:07:50;6.20;;;4.78;;
19386;SDS011;9829;48.142;16.382;2022-07-03T00:10:18;7.60;;;4.90;;
19386;SDS011;9829;48.142;16.382;2022-07-03T00:12:44;5.20;;;4.70;;
19386;SDS011;9829;48.142;16.382;2022-07-03T00:15:11;5.43;;;4.40;;
19386;SDS011;9829;48.142;16.382;2022-07-03T00:17:38;4.80;;;4.40;;
19386;SDS011;9829;48.142;16.382;2022-07-03T00:20:07;5.80;;;5.30;;
19386;SDS011;9829;48.142;16.382;2022-07-03T00:22:36;5.93;;;4.82;;
19386;SDS011;9829;48.142;16.382;2022-07-03T00:25:06;9.25;;;4.53;;
19386;SDS011;9829;48.142;16.382;2022-07-03T00:27:36;5.85;;;4.85;;
19386;SDS011;9829;48.142;16.382;2022-07-03T00:30:05;4.82;;;4.53;;
19386;SDS011;9829;48.142;16.382;2022-07-03T00:32:33;5.10;;;4.70;;
19386;SDS011;9829;48.142;16.382;2022-07-03T00:35:05;5.80;;;4.53;;
19386;SDS011;9829;48.142;16.382;2022-07-03T00:37:34;13.80;;;5.43;;
19386;SDS011;9829;48.142;16.382;2022-07-03T00:40:01;5.13;;;4.72;;
19386;SDS011;9829;48.142;16.382;2022-07-03T00:42:28;7.38;;;5.47;;
19386;SDS011;9829;48.142;16.382;2022-07-03T00:44:57;5.80;;;5.20;;
19386;SDS011;9829;48.142;16.382;2022-07-03T00:47:26;7.03;;;5.30;;
19386;SDS011;9829;48.142;16.382;2022-07-03T00:49:53;5.88;;;5.03;;
19386;SDS011;9829;48.142;16.382;2022-07-03T00:52:23;5.32;;;4.93;;
19386;SDS011;9829;48.142;16.382;2022-07-03T00:54:51;5.00;;;4.70;;
19386;SDS011;9829;48.142;16.382;2022-07-03T00:57:19;9.10;;;4.93;;
19386;SDS011;9829;48.142;16.382;2022-07-03T00:59:47;5.65;;;5.25;;
19386;SDS011;9829;48.142;16.382;2022-07-03T01:02:17;5.00;;;4.70;;
19386;SDS011;9829;48.142;16.382;2022-07-03T01:04:56;5.75;;;5.00;;
19386;SDS011;9829;48.142;16.382;2022-07-03T01:07:33;5.50;;;5.00;;
19386;SDS011;9829;48.142;16.382;2022-07-03T01:10:04;14.80;;;4.68;;
19386;SDS011;9829;48.142;16.382;2022-07-03T01:12:40;5.05;;;4.55;;
19386;SDS011;9829;48.142;16.382;2022-07-03T01:15:22;5.68;;;4.72;;
19386;SDS011;9829;48.142;16.382;2022-07-03T01:18:03;6.22;;;5.18;;
19386;SDS011;9829;48.142;16.382;2022-07-03T01:20:39;6.55;;;5.47;;
19386;SDS011;9829;48.142;16.382;2022-07-03T01:23:15;8.75;;;5.10;;
19386;SDS011;9829;48.142;16.382;2022-07-03T01:25:52;5.70;;;4.90;;
19386;SDS011;9829;48.142;16.382;2022-07-03T01:28:20;6.05;;;5.28;;
19386;SDS011;9829;48.142;16.382;2022-07-03T01:30:49;5.85;;;5.00;;
19386;SDS011;9829;48.142;16.382;2022-07-03T01:33:18;5.55;;;5.15;;
19386;SDS011;9829;48.142;16.382;2022-07-03T01:35:47;4.72;;;4.43;;
19386;SDS011;9829;48.142;16.382;2022-07-03T01:38:24;4.93;;;4.53;;
19386;SDS011;9829;48.142;16.382;2022-07-03T01:40:56;5.60;;;5.15;;
19386;SDS011;9829;48.142;16.382;2022-07-03T01:43:25;5.55;;;4.95;;
19386;SDS011;9829;48.142;16.382;2022-07-03T01:45:55;5.80;;;5.30;;
19386;SDS011;9829;48.142;16.382;2022-07-03T01:48:23;6.07;;;5.18;;
19386;SDS011;9829;48.142;16.382;2022-07-03T01:50:51;14.38;;;5.43;;
19386;SDS011;9829;48.142;16.382;2022-07-03T01:53:18;4.93;;;4.60;;
19386;SDS011;9829;48.142;16.382;2022-07-03T01:55:49;6.78;;;5.60;;
19386;SDS011;9829;48.142;16.382;2022-07-03T01:58:19;5.63;;;5.22;;
19386;SDS011;9829;48.142;16.382;2022-07-03T02:00:47;6.20;;;5.47;;
19386;SDS011;9829;48.142;16.382;2022-07-03T02:03:21;5.28;;;4.78;;
19386;SDS011;9829;48.142;16.382;2022-07-03T02:05:53;5.35;;;4.95;;
19386;SDS011;9829;48.142;16.382;2022-07-03T02:08:33;5.72;;;5.10;;
19386;SDS011;9829;48.142;16.382;2022-07-03T02:11:15;5.63;;;5.03;;
19386;SDS011;9829;48.142;16.382;2022-07-03T02:13:49;5.57;;;4.50;;
19386;SDS011;9829;48.142;16.382;2022-07-03T02:16:19;8.63;;;4.70;;
19386;SDS011;9829;48.142;16.382;2022-07-03T02:18:50;5.20;;;4.80;;
19386;SDS011;9829;48.142;16.382;2022-07-03T02:21:27;8.70;;;5.10;;
19386;SDS011;9829;48.142;16.382;2022-07-03T02:23:57;5.03;;;4.60;;
19386;SDS011;9829;48.142;16.382;2022-07-03T02:26:32;5.50;;;5.00;;
19386;SDS011;9829;48.142;16.382;2022-07-03T02:29:02;5.50;;;5.00;;
19386;SDS011;9829;48.142;16.382;2022-07-03T02:31:32;5.38;;;4.90;;
19386;SDS011;9829;48.142;16.382;2022-07-03T02:34:05;7.72;;;5.32;;
19386;SDS011;9829;48.142;16.382;2022-07-03T02:36:33;8.70;;;4.97;;
19386;SDS011;9829;48.142;16.382;2022-07-03T02:39:01;6.70;;;5.38;;
19386;SDS011;9829;48.142;16.382;2022-07-03T02:41:36;7.00;;;6.30;;
19386;SDS011;9829;48.142;16.382;2022-07-03T02:44:14;10.23;;;6.63;;
19386;SDS011;9829;48.142;16.382;2022-07-03T02:46:52;9.10;;;7.03;;
19386;SDS011;9829;48.142;16.382;2022-07-03T02:52:24;7.65;;;6.97;;
19386;SDS011;9829;48.142;16.382;2022-07-03T02:54:57;7.57;;;6.70;;
19386;SDS011;9829;48.142;16.382;2022-07-03T02:57:30;7.72;;;7.05;;
19386;SDS011;9829;48.142;16.382;2022-07-03T03:00:06;7.45;;;6.70;;
19386;SDS011;9829;48.142;16.382;2022-07-03T03:02:50;7.45;;;6.85;;
19386;SDS011;9829;48.142;16.382;2022-07-03T03:05:21;7.63;;;6.72;;
19386;SDS011;9829;48.142;16.382;2022-07-03T03:07:57;6.68;;;6.18;;
19386;SDS011;9829;48.142;16.382;2022-07-03T03:10:29;7.70;;;6.32;;
19386;SDS011;9829;48.142;16.382;2022-07-03T03:13:02;7.10;;;6.50;;
19386;SDS011;9829;48.142;16.382;2022-07-03T03:15:32;6.85;;;6.35;;
19386;SDS011;9829;48.142;16.382;2022-07-03T03:18:01;6.82;;;6.30;;
19386;SDS011;9829;48.142;16.382;2022-07-03T03:20:30;7.07;;;6.57;;
19386;SDS011;9829;48.142;16.382;2022-07-03T03:22:59;7.43;;;6.40;;
19386;SDS011;9829;48.142;16.382;2022-07-03T03:25:40;6.60;;;5.82;;
19386;SDS011;9829;48.142;16.382;2022-07-03T03:28:07;6.93;;;6.32;;
19386;SDS011;9829;48.142;16.382;2022-07-03T03:30:36;6.90;;;6.32;;
19386;SDS011;9829;48.142;16.382;2022-07-03T03:33:03;8.70;;;5.82;;
19386;SDS011;9829;48.142;16.382;2022-07-03T03:35:32;9.50;;;6.20;;
19386;SDS011;9829;48.142;16.382;2022-07-03T03:37:59;6.32;;;5.88;;
19386;SDS011;9829;48.142;16.382;2022-07-03T03:40:26;6.85;;;6.25;;
19386;SDS011;9829;48.142;16.382;2022-07-03T03:42:53;6.43;;;5.70;;
19386;SDS011;9829;48.142;16.382;2022-07-03T03:45:20;8.25;;;5.90;;
19386;SDS011;9829;48.142;16.382;2022-07-03T03:47:48;6.82;;;5.43;;
19386;SDS011;9829;48.142;16.382;2022-07-03T03:50:16;7.28;;;5.35;;
19386;SDS011;9829;48.142;16.382;2022-07-03T03:52:43;5.68;;;5.22;;
19386;SDS011;9829;48.142;16.382;2022-07-03T03:55:10;6.03;;;5.50;;
19386;SDS011;9829;48.142;16.382;2022-07-03T03:57:37;6.13;;;5.45;;
19386;SDS011;9829;48.142;16.382;2022-07-03T04:00:04;5.75;;;5.35;;
19386;SDS011;9829;48.142;16.382;2022-07-03T04:02:32;5.85;;;5.35;;
19386;SDS011;9829;48.142;16.382;2022-07-03T04:05:01;7.15;;;5.35;;
19386;SDS011;9829;48.142;16.382;2022-07-03T04:07:27;5.68;;;5.18;;
19386;SDS011;9829;48.142;16.382;2022-07-03T04:09:54;6.07;;;4.93;;
19386;SDS011;9829;48.142;16.382;2022-07-03T04:12:22;5.10;;;4.78;;
19386;SDS011;9829;48.142;16.382;2022-07-03T04:14:49;6.22;;;4.72;;
19386;SDS011;9829;48.142;16.382;2022-07-03T04:17:15;5.00;;;4.60;;
19386;SDS011;9829;48.142;16.382;2022-07-03T04:19:42;4.65;;;4.20;;
19386;SDS011;9829;48.142;16.382;2022-07-03T04:22:11;5.15;;;4.65;;
19386;SDS011;9829;48.142;16.382;2022-07-03T04:24:37;8.43;;;4.90;;
19386;SDS011;9829;48.142;16.382;2022-07-03T04:27:04;4.70;;;4.40;;
19386;SDS011;9829;48.142;16.382;2022-07-03T04:29:31;5.07;;;4.60;;
19386;SDS011;9829;48.142;16.382;2022-07-03T04:31:58;4.93;;;4.63;;
19386;SDS011;9829;48.142;16.382;2022-07-03T04:34:25;5.07;;;4.68;;
19386;SDS011;9829;48.142;16.382;2022-07-03T04:36:52;4.57;;;4.28;;
19386;SDS011;9829;48.142;16.382;2022-07-03T04:39:20;4.88;;;4.45;;
19386;SDS011;9829;48.142;16.382;2022-07-03T04:41:47;4.75;;;4.45;;
19386;SDS011;9829;48.142;16.382;2022-07-03T04:44:14;4.85;;;4.40;;
19386;SDS011;9829;48.142;16.382;2022-07-03T04:46:41;5.15;;;4.57;;
19386;SDS011;9829;48.142;16.382;2022-07-03T04:49:08;5.18;;;4.43;;
19386;SDS011;9829;48.142;16.382;2022-07-03T04:51:35;4.80;;;4.40;;
19386;SDS011;9829;48.142;16.382;2022-07-03T04:54:02;4.95;;;4.10;;
19386;SDS011;9829;48.142;16.382;2022-07-03T04:56:30;4.93;;;4.50;;
19386;SDS011;9829;48.142;16.382;2022-07-03T04:58:57;10.57;;;4.30;;
19386;SDS011;9829;48.142;16.382;2022-07-03T05:01:24;6.75;;;3.38;;
19386;SDS011;9829;48.142;16.382;2022-07-03T05:03:51;3.83;;;3.53;;
19386;SDS011;9829;48.142;16.382;2022-07-03T05:06:17;4.03;;;3.33;;
19386;SDS011;9829;48.142;16.382;2022-07-03T05:08:44;3.47;;;3.15;;
19386;SDS011;9829;48.142;16.382;2022-07-03T05:11:11;3.38;;;3.05;;
19386;SDS011;9829;48.142;16.382;2022-07-03T05:13:39;3.00;;;2.80;;
19386;SDS011;9829;48.142;16.382;2022-07-03T05:16:06;3.22;;;2.92;;
19386;SDS011;9829;48.142;16.382;2022-07-03T05:18:33;2.63;;;2.53;;
19386;SDS011;9829;48.142;16.382;2022-07-03T05:21:00;3.17;;;2.78;;
19386;SDS011;9829;48.142;16.382;2022-07-03T05:23:27;6.38;;;2.40;;
19386;SDS011;9829;48.142;16.382;2022-07-03T05:25:54;2.63;;;2.42;;
19386;SDS011;9829;48.142;16.382;2022-07-03T05:28:21;2.92;;;2.63;;
19386;SDS011;9829;48.142;16.382;2022-07-03T05:30:50;3.13;;;2.50;;
19386;SDS011;9829;48.142;16.382;2022-07-03T05:33:17;2.38;;;2.28;;
19386;SDS011;9829;48.142;16.382;2022-07-03T05:35:44;3.47;;;2.30;;
19386;SDS011;9829;48.142;16.382;2022-07-03T05:38:11;2.20;;;2.00;;
19386;SDS011;9829;48.142;16.382;2022-07-03T05:40:38;1.92;;;1.70;;
19386;SDS011;9829;48.142;16.382;2022-07-03T05:43:05;2.13;;;2.03;;
19386;SDS011;9829;48.142;16.382;2022-07-03T05:45:32;2.13;;;1.90;;
19386;SDS011;9829;48.142;16.382;2022-07-03T05:48:00;1.88;;;1.77;;
19386;SDS011;9829;48.142;16.382;2022-07-03T05:50:27;2.10;;;2.00;;
19386;SDS011;9829;48.142;16.382;2022-07-03T05:52:54;2.50;;;2.35;;
19386;SDS011;9829;48.142;16.382;2022-07-03T05:55:23;2.25;;;2.05;;
19386;SDS011;9829;48.142;16.382;2022-07-03T05:57:52;2.55;;;2.25;;
19386;SDS011;9829;48.142;16.382;2022-07-03T06:00:19;1.92;;;1.80;;
19386;SDS011;9829;48.142;16.382;2022-07-03T06:02:46;1.85;;;1.73;;
19386;SDS011;9829;48.142;16.382;2022-07-03T06:05:14;2.03;;;1.90;;
19386;SDS011;9829;48.142;16.382;2022-07-03T06:07:41;3.13;;;2.00;;
19386;SDS011;9829;48.142;16.382;2022-07-03T06:10:08;2.55;;;2.35;;
19386;SDS011;9829;48.142;16.382;2022-07-03T06:12:35;2.13;;;2.03;;
19386;SDS011;9829;48.142;16.382;2022-07-03T06:15:02;3.55;;;2.20;;
19386;SDS011;9829;48.142;16.382;2022-07-03T06:17:29;4.38;;;2.20;;
19386;SDS011;9829;48.142;16.382;2022-07-03T06:19:56;2.40;;;2.20;;
19386;SDS011;9829;48.142;16.382;2022-07-03T06:22:24;2.03;;;1.80;;
19386;SDS011;9829;48.142;16.382;2022-07-03T06:24:51;2.40;;;2.20;;
19386;SDS011;9829;48.142;16.382;2022-07-03T06:27:18;2.50;;;2.30;;
19386;SDS011;9829;48.142;16.382;2022-07-03T06:29:45;1.88;;;1.77;;
19386;SDS011;9829;48.142;16.382;2022-07-03T06:32:12;2.00;;;1.90;;
19386;SDS011;9829;48.142;16.382;2022-07-03T06:34:39;1.80;;;1.70;;
19386;SDS011;9829;48.142;16.382;2022-07-03T06:37:08;2.13;;;1.90;;
19386;SDS011;9829;48.142;16.382;2022-07-03T06:39:36;2.90;;;1.90;;
19386;SDS011;9829;48.142;16.382;2022-07-03T06:42:03;2.67;;;2.20;;
19386;SDS011;9829;48.142;16.382;2022-07-03T06:44:30;1.98;;;1.80;;
19386;SDS011;9829;48.142;16.382;2022-07-03T06:46:57;2.28;;;2.08;;
19386;SDS011;9829;48.142;16.382;2022-07-03T06:49:28;1.98;;;1.88;;
19386;SDS011;9829;48.142;16.382;2022-07-03T06:51:55;2.25;;;2.15;;
19386;SDS011;9829;48.142;16.382;2022-07-03T06:54:22;3.55;;;1.80;;
19386;SDS011;9829;48.142;16.382;2022-07-03T06:56:50;2.13;;;2.03;;
19386;SDS011;9829;48.142;16.382;2022-07-03T06:59:17;2.80;;;2.10;;
19386;SDS011;9829;48.142;16.382;2022-07-03T07:01:44;3.17;;;1.90;;
19386;SDS011;9829;48.142;16.382;2022-07-03T07:04:11;2.45;;;1.70;;
19386;SDS011;9829;48.142;16.382;2022-07-03T07:06:38;5.50;;;1.75;;
19386;SDS011;9829;48.142;16.382;2022-07-03T07:09:05;6.75;;;1.90;;
19386;SDS011;9829;48.142;16.382;2022-07-03T07:11:32;12.80;;;2.60;;
19386;SDS011;9829;48.142;16.382;2022-07-03T07:14:00;24.88;;;2.92;;
19386;SDS011;9829;48.142;16.382;2022-07-03T07:16:27;2.10;;;2.00;;
19386;SDS011;9829;48.142;16.382;2022-07-03T07:18:54;2.25;;;2.15;;
19386;SDS011;9829;48.142;16.382;2022-07-03T07:21:21;2.17;;;2.08;;
19386;SDS011;9829;48.142;16.382;2022-07-03T07:23:48;2.20;;;2.10;;
19386;SDS011;9829;48.142;16.382;2022-07-03T07:26:15;2.30;;;2.05;;
19386;SDS011;9829;48.142;16.382;2022-07-03T07:28:43;4.13;;;2.50;;
19386;SDS011;9829;48.142;16.382;2022-07-03T07:31:11;3.63;;;2.67;;
19386;SDS011;9829;48.142;16.382;2022-07-03T07:33:38;3.10;;;2.50;;
19386;SDS011;9829;48.142;16.382;2022-07-03T07:36:05;3.72;;;2.58;;
19386;SDS011;9829;48.142;16.382;2022-07-03T07:38:33;2.20;;;2.10;;
19386;SDS011;9829;48.142;16.382;2022-07-03T07:41:00;4.22;;;2.25;;
19386;SDS011;9829;48.142;16.382;2022-07-03T07:43:26;10.50;;;3.17;;
19386;SDS011;9829;48.142;16.382;2022-07-03T07:45:53;4.22;;;2.78;;
19386;SDS011;9829;48.142;16.382;2022-07-03T07:48:22;3.10;;;2.20;;
19386;SDS011;9829;48.142;16.382;2022-07-03T07:50:48;4.15;;;2.60;;
19386;SDS011;9829;48.142;16.382;2022-07-03T07:53:16;2.85;;;2.72;;
19386;SDS011;9829;48.142;16.382;2022-07-03T07:55:43;5.13;;;3.25;;
19386;SDS011;9829;48.142;16.382;2022-07-03T07:58:10;3.20;;;3.00;;
19386;SDS011;9829;48.142;16.382;2022-07-03T08:00:37;2.90;;;2.70;;
19386;SDS011;9829;48.142;16.382;2022-07-03T08:03:25;5.97;;;3.10;;
19386;SDS011;9829;48.142;16.382;2022-07-03T08:06:10;4.85;;;2.75;;
19386;SDS011;9829;48.142;16.382;2022-07-03T08:08:37;3.58;;;3.10;;
19386;SDS011;9829;48.142;16.382;2022-07-03T08:11:04;7.40;;;3.17;;
19386;SDS011;9829;48.142;16.382;2022-07-03T08:13:31;3.00;;;2.80;;
19386;SDS011;9829;48.142;16.382;2022-07-03T08:15:58;3.05;;;2.83;;
19386;SDS011;9829;48.142;16.382;2022-07-03T08:18:26;3.50;;;2.60;;
19386;SDS011;9829;48.142;16.382;2022-07-03T08:20:53;2.63;;;2.40;;
19386;SDS011;9829;48.142;16.382;2022-07-03T08:23:20;3.92;;;2.63;;
19386;SDS011;9829;48.142;16.382;2022-07-03T08:25:47;2.72;;;2.63;;
19386;SDS011;9829;48.142;16.382;2022-07-03T08:28:14;2.60;;;2.50;;
19386;SDS011;9829;48.142;16.382;2022-07-03T08:30:41;4.05;;;2.58;;
19386;SDS011;9829;48.142;16.382;2022-07-03T08:33:08;3.10;;;2.40;;
19386;SDS011;9829;48.142;16.382;2022-07-03T08:35:36;2.67;;;2.47;;
19386;SDS011;9829;48.142;16.382;2022-07-03T08:38:03;2.80;;;2.60;;
19386;SDS011;9829;48.142;16.382;2022-07-03T08:40:30;2.90;;;2.70;;
19386;SDS011;9829;48.142;16.382;2022-07-03T08:42:58;4.65;;;2.65;;
19386;SDS011;9829;48.142;16.382;2022-07-03T08:45:27;2.42;;;2.22;;
19386;SDS011;9829;48.142;16.382;2022-07-03T08:47:57;2.50;;;2.40;;
19386;SDS011;9829;48.142;16.382;2022-07-03T08:50:24;2.90;;;2.70;;
19386;SDS011;9829;48.142;16.382;2022-07-03T08:52:53;2.80;;;2.60;;
19386;SDS011;9829;48.142;16.382;2022-07-03T08:55:20;2.55;;;2.45;;
19386;SDS011;9829;48.142;16.382;2022-07-03T08:57:47;2.05;;;1.95;;
19386;SDS011;9829;48.142;16.382;2022-07-03T09:00:16;2.78;;;2.25;;
19386;SDS011;9829;48.142;16.382;2022-07-03T09:02:44;3.15;;;2.08;;
19386;SDS011;9829;48.142;16.382;2022-07-03T09:05:12;2.28;;;2.10;;
19386;SDS011;9829;48.142;16.382;2022-07-03T09:07:40;7.00;;;2.53;;
19386;SDS011;9829;48.142;16.382;2022-07-03T09:10:11;2.35;;;2.25;;
19386;SDS011;9829;48.142;16.382;2022-07-03T09:12:39;2.33;;;2.22;;
19386;SDS011;9829;48.142;16.382;2022-07-03T09:15:08;2.75;;;1.80;;
19386;SDS011;9829;48.142;16.382;2022-07-03T09:17:37;2.30;;;2.20;;
19386;SDS011;9829;48.142;16.382;2022-07-03T09:20:04;2.20;;;2.10;;
19386;SDS011;9829;48.142;16.382;2022-07-03T09:22:33;2.30;;;2.10;;
19386;SDS011;9829;48.142;16.382;2022-07-03T09:25:04;2.00;;;1.90;;
19386;SDS011;9829;48.142;16.382;2022-07-03T09:27:34;2.85;;;2.28;;
19386;SDS011;9829;48.142;16.382;2022-07-03T09:30:03;2.20;;;2.00;;
19386;SDS011;9829;48.142;16.382;2022-07-03T09:32:32;2.20;;;2.05;;
19386;SDS011;9829;48.142;16.382;2022-07-03T09:35:16;2.03;;;1.92;;
19386;SDS011;9829;48.142;16.382;2022-07-03T09:37:47;1.88;;;1.77;;
19386;SDS011;9829;48.142;16.382;2022-07-03T09:40:15;4.00;;;1.52;;
19386;SDS011;9829;48.142;16.382;2022-07-03T09:42:57;1.88;;;1.77;;
19386;SDS011;9829;48.142;16.382;2022-07-03T09:45:25;1.60;;;1.55;;
19386;SDS011;9829;48.142;16.382;2022-07-03T09:47:52;3.58;;;2.08;;
19386;SDS011;9829;48.142;16.382;2022-07-03T09:50:19;2.22;;;1.90;;
19386;SDS011;9829;48.142;16.382;2022-07-03T09:52:46;3.63;;;1.73;;
19386;SDS011;9829;48.142;16.382;2022-07-03T09:55:15;2.10;;;1.85;;
19386;SDS011;9829;48.142;16.382;2022-07-03T09:57:44;2.67;;;1.92;;
19386;SDS011;9829;48.142;16.382;2022-07-03T10:00:14;3.00;;;1.70;;
19386;SDS011;9829;48.142;16.382;2022-07-03T10:02:52;1.67;;;1.60;;
19386;SDS011;9829;48.142;16.382;2022-07-03T10:05:20;1.80;;;1.70;;
19386;SDS011;9829;48.142;16.382;2022-07-03T10:07:55;5.05;;;1.75;;
19386;SDS011;9829;48.142;16.382;2022-07-03T10:10:24;1.90;;;1.80;;
19386;SDS011;9829;48.142;16.382;2022-07-03T10:12:52;1.77;;;1.63;;
19386;SDS011;9829;48.142;16.382;2022-07-03T10:15:22;1.90;;;1.80;;
19386;SDS011;9829;48.142;16.382;2022-07-03T10:17:51;3.30;;;1.80;;
19386;SDS011;9829;48.142;16.382;2022-07-03T10:20:23;1.70;;;1.60;;
19386;SDS011;9829;48.142;16.382;2022-07-03T10:22:52;2.15;;;1.85;;
19386;SDS011;9829;48.142;16.382;2022-07-03T10:25:19;2.50;;;1.73;;
19386;SDS011;9829;48.142;16.382;2022-07-03T10:27:47;1.60;;;1.50;;
19386;SDS011;9829;48.142;16.382;2022-07-03T10:30:14;2.20;;;1.83;;
19386;SDS011;9829;48.142;16.382;2022-07-03T10:32:45;4.18;;;1.52;;
19386;SDS011;9829;48.142;16.382;2022-07-03T10:35:14;2.97;;;1.80;;
19386;SDS011;9829;48.142;16.382;2022-07-03T10:37:46;1.90;;;1.80;;
19386;SDS011;9829;48.142;16.382;2022-07-03T10:40:20;2.33;;;1.50;;
19386;SDS011;9829;48.142;16.382;2022-07-03T10:43:14;1.58;;;1.48;;
19386;SDS011;9829;48.142;16.382;2022-07-03T10:46:08;1.75;;;1.65;;
19386;SDS011;9829;48.142;16.382;2022-07-03T10:51:54;1.75;;;1.65;;
19386;SDS011;9829;48.142;16.382;2022-07-03T10:54:22;1.73;;;1.63;;
19386;SDS011;9829;48.142;16.382;2022-07-03T10:57:09;1.92;;;1.75;;
19386;SDS011;9829;48.142;16.382;2022-07-03T11:00:00;2.70;;;1.67;;
19386;SDS011;9829;48.142;16.382;2022-07-03T11:02:30;1.67;;;1.52;;
19386;SDS011;9829;48.142;16.382;2022-07-03T11:05:05;1.88;;;1.58;;
19386;SDS011;9829;48.142;16.382;2022-07-03T11:10:35;1.65;;;1.55;;
19386;SDS011;9829;48.142;16.382;2022-07-03T11:13:08;4.60;;;1.70;;
19386;SDS011;9829;48.142;16.382;2022-07-03T11:15:38;1.77;;;1.52;;
19386;SDS011;9829;48.142;16.382;2022-07-03T11:18:09;1.30;;;1.30;;
19386;SDS011;9829;48.142;16.382;2022-07-03T11:21:02;5.47;;;1.95;;
19386;SDS011;9829;48.142;16.382;2022-07-03T11:29:48;1.65;;;1.55;;
19386;SDS011;9829;48.142;16.382;2022-07-03T11:35:20;2.78;;;1.70;;
19386;SDS011;9829;48.142;16.382;2022-07-03T11:38:17;1.35;;;1.25;;
19386;SDS011;9829;48.142;16.382;2022-07-03T11:40:48;1.92;;;1.50;;
19386;SDS011;9829;48.142;16.382;2022-07-03T11:43:16;2.38;;;1.50;;
19386;SDS011;9829;48.142;16.382;2022-07-03T11:45:43;3.13;;;1.55;;
19386;SDS011;9829;48.142;16.382;2022-07-03T11:48:13;1.35;;;1.30;;
19386;SDS011;9829;48.142;16.382;2022-07-03T11:50:41;2.10;;;1.48;;
19386;SDS011;9829;48.142;16.382;2022-07-03T11:53:24;1.13;;;1.13;;
19386;SDS011;9829;48.142;16.382;2022-07-03T11:55:56;3.97;;;1.27;;
19386;SDS011;9829;48.142;16.382;2022-07-03T11:58:24;1.50;;;1.40;;
19386;SDS011;9829;48.142;16.382;2022-07-03T12:00:52;1.55;;;1.40;;
19386;SDS011;9829;48.142;16.382;2022-07-03T12:03:23;1.95;;;1.48;;
19386;SDS011;9829;48.142;16.382;2022-07-03T12:05:52;2.40;;;1.30;;
19386;SDS011;9829;48.142;16.382;2022-07-03T12:08:25;1.63;;;1.52;;
19386;SDS011;9829;48.142;16.382;2022-07-03T12:10:57;2.05;;;1.50;;
19386;SDS011;9829;48.142;16.382;2022-07-03T12:13:26;1.88;;;1.70;;
19386;SDS011;9829;48.142;16.382;2022-07-03T12:16:00;1.30;;;1.20;;
19386;SDS011;9829;48.142;16.382;2022-07-03T12:18:40;2.17;;;1.40;;
19386;SDS011;9829;48.142;16.382;2022-07-03T12:21:08;1.20;;;1.17;;
19386;SDS011;9829;48.142;16.382;2022-07-03T12:23:41;2.88;;;1.10;;
19386;SDS011;9829;48.142;16.382;2022-07-03T12:26:09;1.17;;;1.13;;
19386;SDS011;9829;48.142;16.382;2022-07-03T12:28:36;4.13;;;1.10;;
19386;SDS011;9829;48.142;16.382;2022-07-03T12:31:03;1.42;;;1.25;;
19386;SDS011;9829;48.142;16.382;2022-07-03T12:33:31;1.70;;;1.60;;
19386;SDS011;9829;48.142;16.382;2022-07-03T12:36:04;1.40;;;1.30;;
19386;SDS011;9829;48.142;16.382;2022-07-03T12:38:32;3.47;;;1.70;;
19386;SDS011;9829;48.142;16.382;2022-07-03T12:41:07;1.60;;;1.23;;
19386;SDS011;9829;48.142;16.382;2022-07-03T12:43:38;1.10;;;1.10;;
19386;SDS011;9829;48.142;16.382;2022-07-03T12:46:15;1.40;;;1.20;;
19386;SDS011;9829;48.142;16.382;2022-07-03T12:48:49;1.30;;;1.30;;
19386;SDS011;9829;48.142;16.382;2022-07-03T12:51:35;20.83;;;4.03;;
19386;SDS011;9829;48.142;16.382;2022-07-03T12:54:04;1.75;;;1.40;;
19386;SDS011;9829;48.142;16.382;2022-07-03T12:56:32;1.33;;;1.23;;
19386;SDS011;9829;48.142;16.382;2022-07-03T12:58:59;2.33;;;1.20;;
19386;SDS011;9829;48.142;16.382;2022-07-03T13:01:43;1.88;;;1.10;;
19386;SDS011;9829;48.142;16.382;2022-07-03T13:04:11;1.95;;;1.08;;
19386;SDS011;9829;48.142;16.382;2022-07-03T13:06:40;1.23;;;1.13;;
19386;SDS011;9829;48.142;16.382;2022-07-03T13:09:07;3.80;;;1.20;;
19386;SDS011;9829;48.142;16.382;2022-07-03T13:11:36;1.40;;;1.30;;
19386;SDS011;9829;48.142;16.382;2022-07-03T13:14:05;2.15;;;1.05;;
19386;SDS011;9829;48.142;16.382;2022-07-03T13:16:43;1.20;;;1.10;;
19386;SDS011;9829;48.142;16.382;2022-07-03T13:19:12;0.90;;;0.90;;
19386;SDS011;9829;48.142;16.382;2022-07-03T13:21:40;1.00;;;1.00;;
19386;SDS011;9829;48.142;16.382;2022-07-03T13:24:08;1.00;;;1.00;;
19386;SDS011;9829;48.142;16.382;2022-07-03T13:26:37;1.25;;;1.15;;
19386;SDS011;9829;48.142;16.382;2022-07-03T13:29:04;1.08;;;1.08;;
19386;SDS011;9829;48.142;16.382;2022-07-03T13:31:31;1.20;;;1.10;;
19386;SDS011;9829;48.142;16.382;2022-07-03T13:33:58;1.70;;;1.30;;
19386;SDS011;9829;48.142;16.382;2022-07-03T13:36:26;2.00;;;1.17;;
19386;SDS011;9829;48.142;16.382;2022-07-03T13:38:53;1.15;;;1.00;;
19386;SDS011;9829;48.142;16.382;2022-07-03T13:41:20;1.10;;;1.00;;
19386;SDS011;9829;48.142;16.382;2022-07-03T13:43:49;1.02;;;1.00;;
19386;SDS011;9829;48.142;16.382;2022-07-03T13:46:18;3.45;;;1.20;;
19386;SDS011;9829;48.142;16.382;2022-07-03T13:48:46;2.63;;;1.42;;
19386;SDS011;9829;48.142;16.382;2022-07-03T13:51:13;1.00;;;0.90;;
19386;SDS011;9829;48.142;16.382;2022-07-03T13:53:40;0.85;;;0.82;;
19386;SDS011;9829;48.142;16.382;2022-07-03T13:56:07;2.22;;;0.90;;
19386;SDS011;9829;48.142;16.382;2022-07-03T13:58:34;2.67;;;0.90;;
19386;SDS011;9829;48.142;16.382;2022-07-03T14:01:02;1.33;;;0.80;;
19386;SDS011;9829;48.142;16.382;2022-07-03T14:03:29;2.38;;;0.80;;
19386;SDS011;9829;48.142;16.382;2022-07-03T14:05:56;3.90;;;1.20;;
19386;SDS011;9829;48.142;16.382;2022-07-03T14:08:22;1.10;;;1.02;;
19386;SDS011;9829;48.142;16.382;2022-07-03T14:10:49;2.25;;;1.30;;
19386;SDS011;9829;48.142;16.382;2022-07-03T14:13:16;1.10;;;1.10;;
19386;SDS011;9829;48.142;16.382;2022-07-03T14:15:43;1.58;;;0.98;;
19386;SDS011;9829;48.142;16.382;2022-07-03T14:18:13;5.15;;;1.13;;
19386;SDS011;9829;48.142;16.382;2022-07-03T14:20:39;3.63;;;1.20;;
19386;SDS011;9829;48.142;16.382;2022-07-03T14:23:06;4.00;;;1.33;;
19386;SDS011;9829;48.142;16.382;2022-07-03T14:25:33;4.72;;;1.10;;
19386;SDS011;9829;48.142;16.382;2022-07-03T14:28:01;4.72;;;1.30;;
19386;SDS011;9829;48.142;16.382;2022-07-03T14:30:46;2.80;;;1.13;;
19386;SDS011;9829;48.142;16.382;2022-07-03T14:33:32;1.60;;;1.30;;
19386;SDS011;9829;48.142;16.382;2022-07-03T14:35:59;3.35;;;1.20;;
19386;SDS011;9829;48.142;16.382;2022-07-03T14:38:26;1.35;;;1.00;;
19386;SDS011;9829;48.142;16.382;2022-07-03T14:40:52;4.85;;;1.30;;
19386;SDS011;9829;48.142;16.382;2022-07-03T14:43:19;1.20;;;1.10;;
19386;SDS011;9829;48.142;16.382;2022-07-03T14:45:46;4.90;;;1.38;;
19386;SDS011;9829;48.142;16.382;2022-07-03T14:48:13;2.72;;;1.05;;
19386;SDS011;9829;48.142;16.382;2022-07-03T14:50:41;2.35;;;1.00;;
19386;SDS011;9829;48.142;16.382;2022-07-03T14:53:08;2.85;;;1.02;;
19386;SDS011;9829;48.142;16.382;2022-07-03T14:55:36;1.00;;;1.00;;
19386;SDS011;9829;48.142;16.382;2022-07-03T14:58:05;2.88;;;1.20;;
19386;SDS011;9829;48.142;16.382;2022-07-03T15:00:46;3.28;;;1.20;;
19386;SDS011;9829;48.142;16.382;2022-07-03T15:03:18;1.05;;;0.95;;
19386;SDS011;9829;48.142;16.382;2022-07-03T15:05:55;0.95;;;0.95;;
19386;SDS011;9829;48.142;16.382;2022-07-03T15:11:29;1.45;;;0.95;;
19386;SDS011;9829;48.142;16.382;2022-07-03T15:14:18;2.22;;;0.80;;
19386;SDS011;9829;48.142;16.382;2022-07-03T15:16:47;2.35;;;1.10;;
19386;SDS011;9829;48.142;16.382;2022-07-03T15:19:15;2.38;;;1.00;;
19386;SDS011;9829;48.142;16.382;2022-07-03T15:21:46;1.80;;;0.80;;
19386;SDS011;9829;48.142;16.382;2022-07-03T15:24:14;3.30;;;1.00;;